createdAt,value
2022-10-14T00:05:56.357Z,17.00
2022-10-14T00:11:03.237Z,17.00
2022-10-14T00:16:14.739Z,16.90
2022-10-14T00:21:17.802Z,16.90
2022-10-14T00:26:23.144Z,16.90
2022-10-14T00:31:26.956Z,16.90
2022-10-14T00:36:29.092Z,16.90
2022-10-14T00:41:33.749Z,16.90
2022-10-14T00:46:40.955Z,17.00
2022-10-14T00:51:48.761Z,16.90
2022-10-14T00:56:51.666Z,17.00
2022-10-14T01:01:53.912Z,17.00
2022-10-14T01:07:15.344Z,17.00
2022-10-14T01:12:29.906Z,17.00
2022-10-14T01:17:40.981Z,17.00
2022-10-14T01:23:04.939Z,17.00
2022-10-14T01:28:24.738Z,16.90
2022-10-14T01:33:33.495Z,16.80
2022-10-14T01:38:41.101Z,16.90
2022-10-14T01:43:48.528Z,16.90
2022-10-14T01:48:56.538Z,16.90
2022-10-14T01:54:18.859Z,16.90
2022-10-14T01:59:23.038Z,16.90
2022-10-14T02:04:25.408Z,16.90
2022-10-14T02:09:46.317Z,16.90
2022-10-14T02:15:13.446Z,16.90
2022-10-14T02:20:35.328Z,16.90
2022-10-14T02:25:41.378Z,16.90
2022-10-14T02:30:49.144Z,16.90
2022-10-14T02:35:54.637Z,16.90
2022-10-14T02:46:04.622Z,16.90
2022-10-14T02:51:07.217Z,16.90
2022-10-14T02:56:14.097Z,16.90
2022-10-14T03:01:16.181Z,16.80
2022-10-14T03:06:19.117Z,16.70
2022-10-14T03:11:21.755Z,16.90
2022-10-14T03:16:25.376Z,17.20
2022-10-14T03:21:27.696Z,16.90
2022-10-14T03:26:30.071Z,16.90
2022-10-14T03:31:32.284Z,16.90
2022-10-14T03:36:35.327Z,16.90
2022-10-14T03:41:38.623Z,16.80
2022-10-14T03:46:41.210Z,16.80
2022-10-14T03:51:43.331Z,16.80
2022-10-14T03:56:47.135Z,16.80
2022-10-14T04:01:50.809Z,16.70
2022-10-14T04:06:54.176Z,16.70
2022-10-14T04:11:57.850Z,16.70
2022-10-14T04:17:01.245Z,16.70
2022-10-14T04:22:03.541Z,16.70
2022-10-14T04:27:07.824Z,16.70
2022-10-14T04:32:10.489Z,16.70
2022-10-14T04:37:12.717Z,16.80
2022-10-14T04:42:16.323Z,16.70
2022-10-14T04:47:20.075Z,16.70
2022-10-14T04:52:23.974Z,16.80
2022-10-14T04:57:27.134Z,16.70
2022-10-14T05:02:30.156Z,16.70
2022-10-14T05:07:33.137Z,16.70
2022-10-14T05:12:38.717Z,16.80
2022-10-14T05:17:44.415Z,16.80
2022-10-14T05:22:47.497Z,16.70
2022-10-14T05:27:49.761Z,16.70
2022-10-14T05:32:52.794Z,16.80
2022-10-14T05:37:59.528Z,16.80
2022-10-14T05:43:07.040Z,16.70
2022-10-14T05:48:10.646Z,16.80
2022-10-14T05:58:16.696Z,16.80
2022-10-14T06:03:19.411Z,16.80
2022-10-14T06:08:23.330Z,16.80
2022-10-14T06:13:25.919Z,16.80
2022-10-14T06:18:29.838Z,16.80
2022-10-14T06:23:32.371Z,16.90
2022-10-14T06:28:34.793Z,16.90
2022-10-14T06:33:36.983Z,16.90
2022-10-14T06:38:39.056Z,17.00
2022-10-14T06:43:41.222Z,17.10
2022-10-14T06:48:46.880Z,17.10
2022-10-14T06:53:52.373Z,17.10
2022-10-14T06:58:55.438Z,17.10
2022-10-14T07:09:00.092Z,17.20
2022-10-14T07:14:02.238Z,17.30
2022-10-14T07:19:04.350Z,17.40
2022-10-14T07:24:06.741Z,17.40
2022-10-14T07:29:08.938Z,17.50
2022-10-14T07:34:11.128Z,17.50
2022-10-14T07:39:13.706Z,17.50
2022-10-14T07:44:16.837Z,17.60
2022-10-14T07:49:21.062Z,17.70
2022-10-14T07:54:25.698Z,17.70
2022-10-14T07:59:27.854Z,17.70
2022-10-14T08:04:30.079Z,17.80
2022-10-14T08:09:35.487Z,17.90
2022-10-14T08:14:37.947Z,18.10
2022-10-14T08:19:40.062Z,18.00
2022-10-14T08:24:42.235Z,18.30
2022-10-14T08:29:44.331Z,18.30
2022-10-14T08:34:46.372Z,18.30
2022-10-14T08:39:48.454Z,18.30
2022-10-14T08:44:57.216Z,18.40
2022-10-14T08:50:06.777Z,18.50
2022-10-14T09:00:38.906Z,18.80
2022-10-14T09:05:41.125Z,18.90
2022-10-14T09:15:52.984Z,19.00
2022-10-14T09:20:57.363Z,19.10
2022-10-14T09:26:05.646Z,19.10
2022-10-14T09:31:12.318Z,19.30
2022-10-14T09:36:19.259Z,19.30
2022-10-14T09:41:30.712Z,19.30
2022-10-14T09:46:32.860Z,19.30
2022-10-14T09:51:35.215Z,19.40
2022-10-14T09:56:42.453Z,19.50
2022-10-14T10:01:54.228Z,19.50
2022-10-14T10:06:56.611Z,19.60
2022-10-14T10:11:58.624Z,19.70
2022-10-14T10:17:12.625Z,19.50
2022-10-14T10:22:23.882Z,19.70
2022-10-14T10:27:37.159Z,19.80
2022-10-14T10:32:50.324Z,19.90
2022-10-14T10:38:17.428Z,20.40
2022-10-14T10:43:40.481Z,20.10
2022-10-14T10:48:46.463Z,20.10
2022-10-14T10:54:06.521Z,20.10
2022-10-14T10:59:56.213Z,20.10
2022-10-14T11:05:27.670Z,20.10
2022-10-14T11:11:03.195Z,20.00
2022-10-14T11:16:16.025Z,19.90
2022-10-14T11:21:27.128Z,19.90
2022-10-14T11:26:43.360Z,19.90
2022-10-14T11:32:24.669Z,19.90
2022-10-14T11:37:48.223Z,19.90
2022-10-14T11:42:53.337Z,20.10
2022-10-14T11:48:20.330Z,20.20
2022-10-14T11:53:41.957Z,20.30
2022-10-14T11:58:48.530Z,23.50
2022-10-14T12:04:09.315Z,20.40
2022-10-14T12:09:39.389Z,20.30
2022-10-14T12:14:51.645Z,20.30
2022-10-14T12:19:54.325Z,20.30
2022-10-14T12:24:58.867Z,20.30
2022-10-14T12:30:02.693Z,20.50
2022-10-14T12:35:42.995Z,20.50
2022-10-14T12:45:57.754Z,20.70
2022-10-14T12:51:16.434Z,20.90
2022-10-14T12:56:53.109Z,20.90
2022-10-14T13:01:57.996Z,20.80
2022-10-14T13:07:39.750Z,21.00
2022-10-14T13:12:42.360Z,20.80
2022-10-14T13:17:46.705Z,20.70
2022-10-14T13:22:49.402Z,20.70
2022-10-14T13:28:03.062Z,20.80
2022-10-14T13:33:16.147Z,20.90
2022-10-14T13:38:19.631Z,20.90
2022-10-14T13:43:31.163Z,21.00
2022-10-14T13:48:41.152Z,21.30
2022-10-14T13:54:32.749Z,21.00
2022-10-14T13:59:44.553Z,21.00
2022-10-14T14:05:03.262Z,21.00
2022-10-14T14:10:09.720Z,20.90
2022-10-14T14:15:26.837Z,20.90
2022-10-14T14:20:29.645Z,20.90
2022-10-14T14:25:36.106Z,20.40
2022-10-14T14:30:55.077Z,20.80
2022-10-14T14:36:12.076Z,20.60
2022-10-14T14:41:39.249Z,20.60
2022-10-14T14:46:45.262Z,20.60
2022-10-14T14:51:48.086Z,20.60
2022-10-14T14:56:59.663Z,20.60
2022-10-14T15:07:21.522Z,20.60
2022-10-14T15:12:28.106Z,20.60
2022-10-14T15:17:43.052Z,20.50
2022-10-14T15:22:46.966Z,20.40
2022-10-14T15:27:55.817Z,20.30
2022-10-14T15:33:00.730Z,20.30
2022-10-14T15:38:02.951Z,20.50
2022-10-14T15:43:20.218Z,20.10
2022-10-14T15:48:22.280Z,20.00
2022-10-14T15:58:27.591Z,19.90
2022-10-14T16:03:34.769Z,19.90
2022-10-14T16:08:46.507Z,19.80
2022-10-14T16:18:52.832Z,19.80
2022-10-14T16:23:55.308Z,19.70
2022-10-14T16:29:00.145Z,19.70
2022-10-14T16:34:02.366Z,19.70
2022-10-14T16:39:04.653Z,19.60
2022-10-14T16:44:07.617Z,19.60
2022-10-14T16:49:10.096Z,19.60
2022-10-14T16:54:12.200Z,19.50
2022-10-14T16:59:15.408Z,19.50
2022-10-14T17:04:20.671Z,19.50
2022-10-14T17:14:31.090Z,19.40
2022-10-14T17:19:33.185Z,19.40
2022-10-14T17:24:35.236Z,19.30
2022-10-14T17:29:37.377Z,19.30
2022-10-14T17:34:39.408Z,19.30
2022-10-14T17:39:41.490Z,19.30
2022-10-14T17:44:44.014Z,19.30
2022-10-14T17:49:47.071Z,19.30
2022-10-14T17:54:49.217Z,19.60
2022-10-14T17:59:51.505Z,19.30
2022-10-14T18:04:53.559Z,19.30
2022-10-14T18:09:55.677Z,19.30
2022-10-14T18:14:57.741Z,19.30
2022-10-14T18:20:04.035Z,19.40
2022-10-14T18:25:06.553Z,19.30
2022-10-14T18:30:09.972Z,19.30
2022-10-14T18:35:12.058Z,19.30
2022-10-14T18:40:16.846Z,19.30
2022-10-14T18:45:18.833Z,19.20
2022-10-14T18:50:20.874Z,19.30
2022-10-14T18:55:22.956Z,19.20
2022-10-14T19:00:26.738Z,19.20
2022-10-14T19:05:32.932Z,19.40
2022-10-14T19:10:35.394Z,19.20
2022-10-14T19:15:53.687Z,19.20
2022-10-14T19:21:03.802Z,19.10
2022-10-14T19:26:11.096Z,19.20
2022-10-14T19:31:16.583Z,19.10
2022-10-14T19:36:19.747Z,19.00
2022-10-14T19:41:21.810Z,18.90
2022-10-14T19:46:27.445Z,18.90
2022-10-14T19:51:30.560Z,19.00
2022-10-14T19:56:32.627Z,18.70
2022-10-14T20:01:34.815Z,18.90
2022-10-14T20:06:38.472Z,18.90
2022-10-14T20:11:41.375Z,18.90
2022-10-14T20:16:43.498Z,18.90
2022-10-14T20:21:45.561Z,18.80
2022-10-14T20:26:47.640Z,18.80
2022-10-14T20:31:49.768Z,18.80
2022-10-14T20:36:53.230Z,18.80
2022-10-14T20:41:55.684Z,18.90
2022-10-14T20:46:57.870Z,18.80
2022-10-14T20:51:59.983Z,18.80
2022-10-14T20:57:02.056Z,18.80
2022-10-14T21:02:04.105Z,18.80
2022-10-14T21:07:06.198Z,18.90
2022-10-14T21:12:08.208Z,18.80
2022-10-14T21:17:10.197Z,18.80
2022-10-14T21:22:12.300Z,18.70
2022-10-14T21:27:14.357Z,18.70
2022-10-14T21:32:16.454Z,18.70
2022-10-14T21:37:20.226Z,18.80
2022-10-14T21:42:22.585Z,18.70
2022-10-14T21:47:24.866Z,18.70
2022-10-14T21:52:26.944Z,18.70
2022-10-14T21:57:29.015Z,18.70
2022-10-14T22:02:31.053Z,18.70
2022-10-14T22:07:33.111Z,18.70
2022-10-14T22:12:35.149Z,18.70
2022-10-14T22:17:37.147Z,18.70
2022-10-14T22:22:39.146Z,18.70
2022-10-14T22:27:41.201Z,18.70
2022-10-14T22:32:43.512Z,18.70
2022-10-14T22:37:45.583Z,18.70
2022-10-14T22:42:51.300Z,18.80
2022-10-14T22:47:53.685Z,18.80
2022-10-14T22:52:55.704Z,18.80
2022-10-14T22:57:57.785Z,18.80
2022-10-14T23:08:02.496Z,18.80
2022-10-14T23:13:05.767Z,18.80
2022-10-14T23:18:07.813Z,18.80
2022-10-14T23:23:10.407Z,18.80
2022-10-14T23:28:12.655Z,18.80
2022-10-14T23:33:14.711Z,18.80
2022-10-14T23:38:16.769Z,18.80
2022-10-14T23:43:19.251Z,18.80
2022-10-14T23:48:21.765Z,18.80
2022-10-14T23:53:26.311Z,18.80
2022-10-14T23:58:29.635Z,18.80
